sensor_id;sensor_type;location;lat;lon;timestamp;pressure;altitude;pressure_sealevel;temperature;humidity
47524;BME280;33253;42.144;25.884;2023-05-11T00:00:01;100963.88;;;10.49;97.25
47524;BME280;33253;42.144;25.884;2023-05-11T00:02:27;101024.56;;;10.79;96.88
47524;BME280;33253;42.144;25.884;2023-05-11T00:04:54;101023.94;;;10.65;98.14
47524;BME280;33253;42.144;25.884;2023-05-11T00:07:20;101015.25;;;10.63;97.52
47524;BME280;33253;42.144;25.884;2023-05-11T00:09:45;101006.56;;;10.61;97.48
47524;BME280;33253;42.144;25.884;2023-05-11T00:12:11;101014.38;;;10.62;97.05
47524;BME280;33253;42.144;25.884;2023-05-11T00:14:37;101002.00;;;10.55;97.37
47524;BME280;33253;42.144;25.884;2023-05-11T00:17:02;101028.38;;;10.67;97.36
47524;BME280;33253;42.144;25.884;2023-05-11T00:19:28;101021.38;;;10.65;97.35
47524;BME280;33253;42.144;25.884;2023-05-11T00:21:56;100910.34;;;10.08;97.03
47524;BME280;33253;42.144;25.884;2023-05-11T00:24:22;101001.25;;;10.58;96.78
47524;BME280;33253;42.144;25.884;2023-05-11T00:26:48;101028.38;;;10.67;97.28
47524;BME280;33253;42.144;25.884;2023-05-11T00:29:13;101029.13;;;10.65;97.13
47524;BME280;33253;42.144;25.884;2023-05-11T00:31:38;100939.91;;;10.14;96.68
47524;BME280;33253;42.144;25.884;2023-05-11T00:34:04;101018.44;;;10.57;96.68
47524;BME280;33253;42.144;25.884;2023-05-11T00:36:29;101022.59;;;10.54;96.62
47524;BME280;33253;42.144;25.884;2023-05-11T00:38:55;101025.16;;;10.54;97.06
47524;BME280;33253;42.144;25.884;2023-05-11T00:41:20;101024.19;;;10.51;96.87
47524;BME280;33253;42.144;25.884;2023-05-11T00:43:46;101026.72;;;10.32;96.99
47524;BME280;33253;42.144;25.884;2023-05-11T00:46:11;101008.59;;;10.12;97.47
47524;BME280;33253;42.144;25.884;2023-05-11T00:48:37;101023.84;;;10.26;98.01
47524;BME280;33253;42.144;25.884;2023-05-11T00:51:03;101014.06;;;10.18;98.21
47524;BME280;33253;42.144;25.884;2023-05-11T00:53:29;101026.84;;;10.35;98.21
47524;BME280;33253;42.144;25.884;2023-05-11T00:55:55;101021.13;;;10.23;96.43
47524;BME280;33253;42.144;25.884;2023-05-11T00:58:21;101032.78;;;9.96;95.93
47524;BME280;33253;42.144;25.884;2023-05-11T01:00:47;101027.19;;;9.87;96.94
47524;BME280;33253;42.144;25.884;2023-05-11T01:03:13;101034.19;;;9.55;98.38
47524;BME280;33253;42.144;25.884;2023-05-11T01:08:54;101030.47;;;9.15;100.00
47524;BME280;33253;42.144;25.884;2023-05-11T01:11:36;101031.69;;;8.89;100.00
47524;BME280;33253;42.144;25.884;2023-05-11T01:14:11;101032.34;;;8.85;100.00
47524;BME280;33253;42.144;25.884;2023-05-11T01:16:39;101028.25;;;8.88;100.00
47524;BME280;33253;42.144;25.884;2023-05-11T01:28:19;101034.31;;;8.11;100.00
47524;BME280;33253;42.144;25.884;2023-05-11T01:30:50;101002.97;;;7.87;100.00
47524;BME280;33253;42.144;25.884;2023-05-11T01:33:26;101018.00;;;8.10;100.00
47524;BME280;33253;42.144;25.884;2023-05-11T01:36:00;101029.97;;;8.25;100.00
47524;BME280;33253;42.144;25.884;2023-05-11T01:38:32;101024.63;;;8.22;100.00
47524;BME280;33253;42.144;25.884;2023-05-11T01:40:59;101023.19;;;8.27;100.00
47524;BME280;33253;42.144;25.884;2023-05-11T01:43:26;101021.19;;;8.21;100.00
47524;BME280;33253;42.144;25.884;2023-05-11T01:45:57;100971.03;;;7.98;100.00
47524;BME280;33253;42.144;25.884;2023-05-11T01:48:24;101024.91;;;8.26;100.00
47524;BME280;33253;42.144;25.884;2023-05-11T01:50:52;100996.22;;;8.04;100.00
47524;BME280;33253;42.144;25.884;2023-05-11T01:53:22;101001.22;;;8.17;100.00
47524;BME280;33253;42.144;25.884;2023-05-11T01:55:49;101022.66;;;8.33;100.00
47524;BME280;33253;42.144;25.884;2023-05-11T01:58:15;101029.69;;;8.20;100.00
47524;BME280;33253;42.144;25.884;2023-05-11T02:00:43;101028.59;;;8.00;100.00
47524;BME280;33253;42.144;25.884;2023-05-11T02:03:09;101028.59;;;8.00;100.00
47524;BME280;33253;42.144;25.884;2023-05-11T02:05:37;101033.19;;;7.91;100.00
47524;BME280;33253;42.144;25.884;2023-05-11T02:08:04;101015.56;;;7.67;100.00
47524;BME280;33253;42.144;25.884;2023-05-11T02:10:31;100867.41;;;6.76;100.00
47524;BME280;33253;42.144;25.884;2023-05-11T02:12:58;101028.63;;;7.55;100.00
47524;BME280;33253;42.144;25.884;2023-05-11T02:15:24;101029.19;;;7.36;100.00
47524;BME280;33253;42.144;25.884;2023-05-11T02:17:50;100988.25;;;6.94;100.00
47524;BME280;33253;42.144;25.884;2023-05-11T02:20:18;101036.94;;;6.93;100.00
47524;BME280;33253;42.144;25.884;2023-05-11T02:22:44;101029.50;;;7.12;100.00
47524;BME280;33253;42.144;25.884;2023-05-11T02:25:11;101029.09;;;7.20;100.00
47524;BME280;33253;42.144;25.884;2023-05-11T02:27:37;101024.03;;;7.21;100.00
47524;BME280;33253;42.144;25.884;2023-05-11T02:30:06;100964.44;;;6.97;100.00
47524;BME280;33253;42.144;25.884;2023-05-11T02:32:35;101035.84;;;7.33;100.00
47524;BME280;33253;42.144;25.884;2023-05-11T02:38:32;100945.69;;;6.98;100.00
47524;BME280;33253;42.144;25.884;2023-05-11T02:41:06;101032.25;;;7.44;100.00
47524;BME280;33253;42.144;25.884;2023-05-11T02:43:36;101039.59;;;7.38;100.00
47524;BME280;33253;42.144;25.884;2023-05-11T02:46:07;101032.97;;;7.41;100.00
47524;BME280;33253;42.144;25.884;2023-05-11T02:48:41;101036.19;;;7.39;100.00
47524;BME280;33253;42.144;25.884;2023-05-11T02:51:10;101028.31;;;7.36;100.00
47524;BME280;33253;42.144;25.884;2023-05-11T02:53:39;101005.91;;;7.18;100.00
47524;BME280;33253;42.144;25.884;2023-05-11T02:56:06;101024.59;;;7.31;100.00
47524;BME280;33253;42.144;25.884;2023-05-11T03:01:54;101035.31;;;7.38;100.00
47524;BME280;33253;42.144;25.884;2023-05-11T03:04:19;101036.81;;;7.35;100.00
47524;BME280;33253;42.144;25.884;2023-05-11T03:06:45;101034.34;;;7.36;100.00
47524;BME280;33253;42.144;25.884;2023-05-11T03:09:10;101044.53;;;7.35;100.00
47524;BME280;33253;42.144;25.884;2023-05-11T03:11:36;100941.25;;;6.95;100.00
47524;BME280;33253;42.144;25.884;2023-05-11T03:14:02;101038.91;;;7.70;100.00
47524;BME280;33253;42.144;25.884;2023-05-11T03:16:28;101037.97;;;7.85;100.00
47524;BME280;33253;42.144;25.884;2023-05-11T03:18:54;101027.09;;;7.89;100.00
47524;BME280;33253;42.144;25.884;2023-05-11T03:21:21;101027.00;;;7.87;100.00
47524;BME280;33253;42.144;25.884;2023-05-11T03:23:48;101021.78;;;7.71;100.00
47524;BME280;33253;42.144;25.884;2023-05-11T03:26:16;101007.41;;;7.74;100.00
47524;BME280;33253;42.144;25.884;2023-05-11T03:28:43;101035.34;;;7.83;100.00
47524;BME280;33253;42.144;25.884;2023-05-11T03:31:10;101046.25;;;7.79;100.00
47524;BME280;33253;42.144;25.884;2023-05-11T03:33:36;100984.38;;;7.46;100.00
47524;BME280;33253;42.144;25.884;2023-05-11T03:36:02;101041.97;;;7.80;100.00
47524;BME280;33253;42.144;25.884;2023-05-11T03:38:29;101049.78;;;7.81;100.00
47524;BME280;33253;42.144;25.884;2023-05-11T03:40:56;101044.81;;;7.84;100.00
47524;BME280;33253;42.144;25.884;2023-05-11T03:43:25;101039.69;;;7.84;100.00
47524;BME280;33253;42.144;25.884;2023-05-11T03:45:52;101001.06;;;7.68;100.00
47524;BME280;33253;42.144;25.884;2023-05-11T03:48:20;101048.88;;;7.96;100.00
47524;BME280;33253;42.144;25.884;2023-05-11T03:50:46;101050.66;;;7.97;100.00
47524;BME280;33253;42.144;25.884;2023-05-11T03:53:12;101055.81;;;7.97;100.00
47524;BME280;33253;42.144;25.884;2023-05-11T03:55:37;101060.94;;;7.97;100.00
47524;BME280;33253;42.144;25.884;2023-05-11T03:58:09;101049.16;;;7.85;100.00
47524;BME280;33253;42.144;25.884;2023-05-11T04:00:38;101061.75;;;7.96;100.00
47524;BME280;33253;42.144;25.884;2023-05-11T04:03:04;101042.75;;;7.93;100.00
47524;BME280;33253;42.144;25.884;2023-05-11T04:05:33;101019.03;;;7.68;100.00
47524;BME280;33253;42.144;25.884;2023-05-11T04:07:59;101053.94;;;7.94;100.00
47524;BME280;33253;42.144;25.884;2023-05-11T04:10:25;101055.63;;;7.93;100.00
47524;BME280;33253;42.144;25.884;2023-05-11T04:12:50;101061.09;;;8.00;100.00
47524;BME280;33253;42.144;25.884;2023-05-11T04:15:17;101056.88;;;8.00;100.00
47524;BME280;33253;42.144;25.884;2023-05-11T04:17:42;101017.19;;;7.80;100.00
47524;BME280;33253;42.144;25.884;2023-05-11T04:20:08;101055.44;;;8.05;100.00
47524;BME280;33253;42.144;25.884;2023-05-11T04:22:33;101034.34;;;7.96;100.00
47524;BME280;33253;42.144;25.884;2023-05-11T04:24:59;101065.63;;;8.19;100.00
47524;BME280;33253;42.144;25.884;2023-05-11T04:27:24;100971.09;;;7.68;100.00
47524;BME280;33253;42.144;25.884;2023-05-11T04:29:49;101056.84;;;8.15;100.00
47524;BME280;33253;42.144;25.884;2023-05-11T04:32:15;101058.78;;;8.19;100.00
47524;BME280;33253;42.144;25.884;2023-05-11T04:34:40;101072.06;;;8.27;100.00
47524;BME280;33253;42.144;25.884;2023-05-11T04:37:06;101065.97;;;8.25;100.00
47524;BME280;33253;42.144;25.884;2023-05-11T04:39:33;101066.88;;;8.10;100.00
47524;BME280;33253;42.144;25.884;2023-05-11T04:41:59;101050.22;;;8.04;100.00
47524;BME280;33253;42.144;25.884;2023-05-11T04:44:25;101056.94;;;8.17;100.00
47524;BME280;33253;42.144;25.884;2023-05-11T04:46:54;101072.44;;;8.18;100.00
47524;BME280;33253;42.144;25.884;2023-05-11T04:49:20;101078.84;;;8.25;100.00
47524;BME280;33253;42.144;25.884;2023-05-11T04:51:46;101079.41;;;8.36;100.00
47524;BME280;33253;42.144;25.884;2023-05-11T04:54:11;101064.50;;;8.45;100.00
47524;BME280;33253;42.144;25.884;2023-05-11T04:56:37;101002.38;;;8.22;100.00
47524;BME280;33253;42.144;25.884;2023-05-11T04:59:06;101058.28;;;8.56;100.00
47524;BME280;33253;42.144;25.884;2023-05-11T05:01:31;101076.25;;;8.71;100.00
47524;BME280;33253;42.144;25.884;2023-05-11T05:03:57;101081.31;;;8.70;100.00
47524;BME280;33253;42.144;25.884;2023-05-11T05:06:22;101079.88;;;8.75;100.00
47524;BME280;33253;42.144;25.884;2023-05-11T05:08:48;101031.16;;;8.47;100.00
47524;BME280;33253;42.144;25.884;2023-05-11T05:11:13;101092.91;;;8.95;100.00
47524;BME280;33253;42.144;25.884;2023-05-11T05:13:39;101070.00;;;8.83;100.00
47524;BME280;33253;42.144;25.884;2023-05-11T05:16:05;101000.88;;;8.57;100.00
47524;BME280;33253;42.144;25.884;2023-05-11T05:18:31;100985.50;;;8.59;100.00
47524;BME280;33253;42.144;25.884;2023-05-11T05:20:56;101078.66;;;9.34;100.00
47524;BME280;33253;42.144;25.884;2023-05-11T05:23:22;101079.72;;;9.54;100.00
47524;BME280;33253;42.144;25.884;2023-05-11T05:25:47;101073.72;;;9.72;100.00
47524;BME280;33253;42.144;25.884;2023-05-11T05:28:12;101063.72;;;9.78;100.00
47524;BME280;33253;42.144;25.884;2023-05-11T05:30:38;101068.00;;;9.96;100.00
47524;BME280;33253;42.144;25.884;2023-05-11T05:33:03;101002.28;;;9.69;100.00
47524;BME280;33253;42.144;25.884;2023-05-11T05:35:29;101068.81;;;10.31;100.00
47524;BME280;33253;42.144;25.884;2023-05-11T05:37:54;101035.78;;;10.24;100.00
47524;BME280;33253;42.144;25.884;2023-05-11T05:40:20;101077.81;;;10.57;100.00
47524;BME280;33253;42.144;25.884;2023-05-11T05:42:45;101075.81;;;10.51;100.00
47524;BME280;33253;42.144;25.884;2023-05-11T05:45:11;101071.63;;;10.54;100.00
47524;BME280;33253;42.144;25.884;2023-05-11T05:47:36;101078.34;;;10.68;100.00
47524;BME280;33253;42.144;25.884;2023-05-11T05:50:02;101076.31;;;10.80;100.00
47524;BME280;33253;42.144;25.884;2023-05-11T05:52:27;101077.81;;;10.95;100.00
47524;BME280;33253;42.144;25.884;2023-05-11T05:54:53;101075.22;;;10.95;100.00
47524;BME280;33253;42.144;25.884;2023-05-11T05:57:18;101067.34;;;10.92;100.00
47524;BME280;33253;42.144;25.884;2023-05-11T05:59:44;101077.06;;;10.97;100.00
47524;BME280;33253;42.144;25.884;2023-05-11T06:02:09;101075.09;;;11.11;100.00
47524;BME280;33253;42.144;25.884;2023-05-11T06:04:37;101072.13;;;11.22;100.00
47524;BME280;33253;42.144;25.884;2023-05-11T06:07:02;101066.13;;;11.23;100.00
47524;BME280;33253;42.144;25.884;2023-05-11T06:09:28;101065.28;;;11.24;100.00
47524;BME280;33253;42.144;25.884;2023-05-11T06:11:53;101080.25;;;11.51;100.00
47524;BME280;33253;42.144;25.884;2023-05-11T06:14:19;101080.25;;;11.51;100.00
47524;BME280;33253;42.144;25.884;2023-05-11T06:16:46;101070.28;;;11.60;100.00
47524;BME280;33253;42.144;25.884;2023-05-11T06:19:12;101076.44;;;11.83;100.00
47524;BME280;33253;42.144;25.884;2023-05-11T06:21:37;101065.53;;;11.90;99.96
47524;BME280;33253;42.144;25.884;2023-05-11T06:24:05;101089.00;;;12.16;98.25
47524;BME280;33253;42.144;25.884;2023-05-11T06:26:31;101070.88;;;12.16;97.24
47524;BME280;33253;42.144;25.884;2023-05-11T06:28:56;101075.88;;;12.33;96.73
47524;BME280;33253;42.144;25.884;2023-05-11T06:31:22;101085.09;;;12.26;93.85
47524;BME280;33253;42.144;25.884;2023-05-11T06:33:48;101030.50;;;11.98;93.88
47524;BME280;33253;42.144;25.884;2023-05-11T06:36:14;101074.94;;;12.30;91.34
47524;BME280;33253;42.144;25.884;2023-05-11T06:38:39;101088.31;;;12.41;93.40
47524;BME280;33253;42.144;25.884;2023-05-11T06:41:05;101079.25;;;12.53;93.34
47524;BME280;33253;42.144;25.884;2023-05-11T06:43:31;101071.91;;;12.64;92.60
47524;BME280;33253;42.144;25.884;2023-05-11T06:45:57;101071.22;;;12.69;92.24
47524;BME280;33253;42.144;25.884;2023-05-11T06:48:23;101056.28;;;12.62;92.71
47524;BME280;33253;42.144;25.884;2023-05-11T06:50:50;101052.28;;;12.70;93.25
47524;BME280;33253;42.144;25.884;2023-05-11T06:53:16;101047.56;;;12.83;90.81
47524;BME280;33253;42.144;25.884;2023-05-11T06:55:42;101049.25;;;12.82;89.26
47524;BME280;33253;42.144;25.884;2023-05-11T06:58:08;101054.59;;;12.87;89.44
47524;BME280;33253;42.144;25.884;2023-05-11T07:00:33;101071.66;;;13.04;89.51
47524;BME280;33253;42.144;25.884;2023-05-11T07:02:59;101067.69;;;13.14;91.05
47524;BME280;33253;42.144;25.884;2023-05-11T07:05:24;101070.41;;;13.17;87.99
47524;BME280;33253;42.144;25.884;2023-05-11T07:07:50;101069.72;;;13.23;89.08
47524;BME280;33253;42.144;25.884;2023-05-11T07:10:16;101064.53;;;13.23;87.41
47524;BME280;33253;42.144;25.884;2023-05-11T07:12:41;101077.50;;;13.23;86.80
47524;BME280;33253;42.144;25.884;2023-05-11T07:15:07;101076.63;;;13.22;86.88
47524;BME280;33253;42.144;25.884;2023-05-11T07:17:33;101067.91;;;13.20;86.46
47524;BME280;33253;42.144;25.884;2023-05-11T07:19:58;101083.25;;;13.14;87.10
47524;BME280;33253;42.144;25.884;2023-05-11T07:22:23;101074.91;;;13.23;85.98
47524;BME280;33253;42.144;25.884;2023-05-11T07:24:49;101079.84;;;13.39;83.02
47524;BME280;33253;42.144;25.884;2023-05-11T07:27:14;101078.56;;;13.04;82.22
47524;BME280;33253;42.144;25.884;2023-05-11T07:29:40;100995.66;;;12.34;81.29
47524;BME280;33253;42.144;25.884;2023-05-11T07:32:05;101083.09;;;12.87;85.61
47524;BME280;33253;42.144;25.884;2023-05-11T07:34:31;101085.06;;;13.17;86.38
47524;BME280;33253;42.144;25.884;2023-05-11T07:36:57;101051.69;;;13.50;85.10
47524;BME280;33253;42.144;25.884;2023-05-11T07:39:22;101069.94;;;13.29;83.58
47524;BME280;33253;42.144;25.884;2023-05-11T07:41:48;101068.78;;;13.43;83.66
47524;BME280;33253;42.144;25.884;2023-05-11T07:44:13;101088.00;;;13.50;81.30
47524;BME280;33253;42.144;25.884;2023-05-11T07:46:39;101067.31;;;13.78;83.89
47524;BME280;33253;42.144;25.884;2023-05-11T07:49:05;101058.78;;;13.82;80.55
47524;BME280;33253;42.144;25.884;2023-05-11T07:51:30;101067.13;;;13.99;80.32
47524;BME280;33253;42.144;25.884;2023-05-11T07:53:56;101048.53;;;14.12;78.80
47524;BME280;33253;42.144;25.884;2023-05-11T07:56:21;101062.19;;;14.34;77.78
47524;BME280;33253;42.144;25.884;2023-05-11T07:58:47;100983.66;;;14.14;78.31
47524;BME280;33253;42.144;25.884;2023-05-11T08:01:12;101054.53;;;14.66;76.88
47524;BME280;33253;42.144;25.884;2023-05-11T08:03:38;101051.75;;;14.61;74.17
47524;BME280;33253;42.144;25.884;2023-05-11T08:06:03;101052.88;;;14.68;74.01
47524;BME280;33253;42.144;25.884;2023-05-11T08:08:29;100999.56;;;14.53;72.56
47524;BME280;33253;42.144;25.884;2023-05-11T08:10:55;101049.09;;;14.88;72.02
47524;BME280;33253;42.144;25.884;2023-05-11T08:13:21;101052.69;;;14.92;71.75
47524;BME280;33253;42.144;25.884;2023-05-11T08:15:46;101063.56;;;14.79;70.85
47524;BME280;33253;42.144;25.884;2023-05-11T08:18:12;101051.50;;;14.81;73.03
47524;BME280;33253;42.144;25.884;2023-05-11T08:20:38;100990.56;;;14.71;75.35
47524;BME280;33253;42.144;25.884;2023-05-11T08:23:06;100976.69;;;14.70;74.01
47524;BME280;33253;42.144;25.884;2023-05-11T08:25:32;101048.41;;;15.26;74.23
47524;BME280;33253;42.144;25.884;2023-05-11T08:27:58;101059.06;;;15.35;72.95
47524;BME280;33253;42.144;25.884;2023-05-11T08:30:24;101043.44;;;15.34;69.52
47524;BME280;33253;42.144;25.884;2023-05-11T08:32:49;101044.34;;;15.36;68.33
47524;BME280;33253;42.144;25.884;2023-05-11T08:35:15;101033.63;;;15.25;70.75
47524;BME280;33253;42.144;25.884;2023-05-11T08:37:40;101031.63;;;15.47;68.95
47524;BME280;33253;42.144;25.884;2023-05-11T08:40:06;101043.13;;;15.23;69.95
47524;BME280;33253;42.144;25.884;2023-05-11T08:42:32;101053.84;;;15.03;69.03
47524;BME280;33253;42.144;25.884;2023-05-11T08:45:01;101039.25;;;15.09;70.15
47524;BME280;33253;42.144;25.884;2023-05-11T08:47:28;101043.13;;;15.23;70.00
47524;BME280;33253;42.144;25.884;2023-05-11T08:49:54;101039.00;;;15.31;71.85
47524;BME280;33253;42.144;25.884;2023-05-11T08:52:19;101025.94;;;15.28;69.03
47524;BME280;33253;42.144;25.884;2023-05-11T08:54:46;101046.41;;;15.49;68.72
47524;BME280;33253;42.144;25.884;2023-05-11T08:57:13;101035.06;;;15.46;68.29
47524;BME280;33253;42.144;25.884;2023-05-11T08:59:40;101018.44;;;15.41;67.31
47524;BME280;33253;42.144;25.884;2023-05-11T09:02:09;101046.38;;;15.48;68.56
47524;BME280;33253;42.144;25.884;2023-05-11T09:04:38;101015.16;;;15.48;69.66
47524;BME280;33253;42.144;25.884;2023-05-11T09:07:04;101030.00;;;15.85;69.26
47524;BME280;33253;42.144;25.884;2023-05-11T09:09:30;100967.19;;;15.36;66.54
47524;BME280;33253;42.144;25.884;2023-05-11T09:11:55;101027.06;;;15.73;67.24
47524;BME280;33253;42.144;25.884;2023-05-11T09:14:21;101019.44;;;15.81;66.26
47524;BME280;33253;42.144;25.884;2023-05-11T09:16:46;101003.81;;;15.81;64.46
47524;BME280;33253;42.144;25.884;2023-05-11T09:19:13;100997.09;;;15.88;64.32
47524;BME280;33253;42.144;25.884;2023-05-11T09:21:43;100984.78;;;15.82;65.18
47524;BME280;33253;42.144;25.884;2023-05-11T09:24:12;101014.25;;;16.17;64.68
47524;BME280;33253;42.144;25.884;2023-05-11T09:26:38;100991.88;;;16.27;64.72
47524;BME280;33253;42.144;25.884;2023-05-11T09:29:04;100990.47;;;16.42;63.93
47524;BME280;33253;42.144;25.884;2023-05-11T09:31:40;100998.72;;;16.63;65.15
47524;BME280;33253;42.144;25.884;2023-05-11T09:34:20;100986.00;;;15.96;62.64
47524;BME280;33253;42.144;25.884;2023-05-11T09:36:50;101003.66;;;15.75;64.21
47524;BME280;33253;42.144;25.884;2023-05-11T09:39:16;100962.97;;;15.78;61.33
47524;BME280;33253;42.144;25.884;2023-05-11T09:41:45;100981.31;;;16.21;64.08
47524;BME280;33253;42.144;25.884;2023-05-11T09:44:14;100977.28;;;16.36;60.53
47524;BME280;33253;42.144;25.884;2023-05-11T09:46:41;100982.63;;;16.42;62.96
47524;BME280;33253;42.144;25.884;2023-05-11T09:49:08;100970.19;;;16.28;63.17
47524;BME280;33253;42.144;25.884;2023-05-11T09:51:36;100969.47;;;16.34;62.52
47524;BME280;33253;42.144;25.884;2023-05-11T09:54:18;100964.28;;;16.37;64.02
47524;BME280;33253;42.144;25.884;2023-05-11T09:56:49;100954.25;;;16.56;62.90
47524;BME280;33253;42.144;25.884;2023-05-11T09:59:16;100971.75;;;16.61;63.45
47524;BME280;33253;42.144;25.884;2023-05-11T10:04:43;100954.75;;;16.82;61.88
47524;BME280;33253;42.144;25.884;2023-05-11T10:07:09;100914.69;;;16.77;61.79
47524;BME280;33253;42.144;25.884;2023-05-11T10:09:35;100967.44;;;17.08;60.71
47524;BME280;33253;42.144;25.884;2023-05-11T10:12:04;100956.31;;;17.17;62.16
47524;BME280;33253;42.144;25.884;2023-05-11T10:14:31;100946.38;;;17.46;62.78
47524;BME280;33253;42.144;25.884;2023-05-11T10:16:59;100900.34;;;17.53;60.09
47524;BME280;33253;42.144;25.884;2023-05-11T10:19:26;100879.00;;;17.23;57.33
47524;BME280;33253;42.144;25.884;2023-05-11T10:21:51;100955.34;;;17.65;61.06
47524;BME280;33253;42.144;25.884;2023-05-11T10:24:17;100928.13;;;17.49;64.14
47524;BME280;33253;42.144;25.884;2023-05-11T10:26:43;100947.81;;;17.85;58.52
47524;BME280;33253;42.144;25.884;2023-05-11T10:29:09;100949.59;;;17.88;58.55
47524;BME280;33253;42.144;25.884;2023-05-11T10:31:36;100935.97;;;18.06;59.22
47524;BME280;33253;42.144;25.884;2023-05-11T10:34:02;100939.59;;;18.17;61.95
47524;BME280;33253;42.144;25.884;2023-05-11T10:36:29;100922.84;;;18.01;57.52
47524;BME280;33253;42.144;25.884;2023-05-11T10:38:54;100937.13;;;18.28;59.89
47524;BME280;33253;42.144;25.884;2023-05-11T11:02:33;100898.09;;;18.45;54.08
47524;BME280;33253;42.144;25.884;2023-05-11T11:05:00;100912.31;;;18.69;56.27
47524;BME280;33253;42.144;25.884;2023-05-11T11:07:29;100907.53;;;19.09;56.66
47524;BME280;33253;42.144;25.884;2023-05-11T11:09:57;100893.78;;;19.38;53.33
47524;BME280;33253;42.144;25.884;2023-05-11T11:12:29;100903.53;;;19.62;52.21
47524;BME280;33253;42.144;25.884;2023-05-11T11:15:03;100890.53;;;19.71;50.16
47524;BME280;33253;42.144;25.884;2023-05-11T11:17:33;100893.19;;;19.81;51.90
47524;BME280;33253;42.144;25.884;2023-05-11T11:20:03;100888.88;;;19.84;51.21
47524;BME280;33253;42.144;25.884;2023-05-11T11:32:49;100866.81;;;19.50;54.50
47524;BME280;33253;42.144;25.884;2023-05-11T11:38:09;100875.56;;;19.50;51.49
47524;BME280;33253;42.144;25.884;2023-05-11T11:40:36;100869.56;;;19.75;50.80
47524;BME280;33253;42.144;25.884;2023-05-11T11:43:16;100866.97;;;19.78;50.72
47524;BME280;33253;42.144;25.884;2023-05-11T11:46:00;100871.13;;;19.43;48.70
47524;BME280;33253;42.144;25.884;2023-05-11T11:48:36;100877.34;;;19.61;50.63
47524;BME280;33253;42.144;25.884;2023-05-11T11:51:05;100857.16;;;19.43;51.21
47524;BME280;33253;42.144;25.884;2023-05-11T11:56:03;100859.63;;;19.19;50.95
47524;BME280;33253;42.144;25.884;2023-05-11T12:01:34;100872.19;;;19.71;50.53
47524;BME280;33253;42.144;25.884;2023-05-11T12:06:39;100848.75;;;19.90;50.18
47524;BME280;33253;42.144;25.884;2023-05-11T12:09:05;100859.13;;;19.79;50.95
47524;BME280;33253;42.144;25.884;2023-05-11T12:11:32;100854.53;;;19.38;51.15
47524;BME280;33253;42.144;25.884;2023-05-11T12:14:01;100847.53;;;19.40;52.54
47524;BME280;33253;42.144;25.884;2023-05-11T12:16:27;100837.25;;;19.68;49.92
47524;BME280;33253;42.144;25.884;2023-05-11T12:18:58;100840.94;;;20.07;49.84
47524;BME280;33253;42.144;25.884;2023-05-11T12:21:25;100833.09;;;20.13;48.71
47524;BME280;33253;42.144;25.884;2023-05-11T12:26:21;100834.84;;;20.11;49.68
47524;BME280;33253;42.144;25.884;2023-05-11T12:28:48;100832.25;;;20.36;49.85
47524;BME280;33253;42.144;25.884;2023-05-11T12:31:18;100807.81;;;20.28;49.16
47524;BME280;33253;42.144;25.884;2023-05-11T12:33:47;100825.31;;;20.57;50.24
47524;BME280;33253;42.144;25.884;2023-05-11T12:36:15;100804.38;;;20.75;50.25
47524;BME280;33253;42.144;25.884;2023-05-11T12:38:59;100822.75;;;20.84;48.59
47524;BME280;33253;42.144;25.884;2023-05-11T12:41:25;100772.88;;;20.49;49.47
47524;BME280;33253;42.144;25.884;2023-05-11T12:43:52;100821.84;;;20.58;48.71
47524;BME280;33253;42.144;25.884;2023-05-11T12:46:18;100813.03;;;20.22;48.55
47524;BME280;33253;42.144;25.884;2023-05-11T12:48:48;100801.63;;;20.04;49.14
47524;BME280;33253;42.144;25.884;2023-05-11T12:54:37;100806.00;;;20.11;49.87
47524;BME280;33253;42.144;25.884;2023-05-11T12:57:03;100804.31;;;20.29;48.81
47524;BME280;33253;42.144;25.884;2023-05-11T12:59:37;100790.28;;;20.24;48.68
47524;BME280;33253;42.144;25.884;2023-05-11T13:02:15;100735.94;;;19.65;51.36
47524;BME280;33253;42.144;25.884;2023-05-11T13:04:43;100801.63;;;20.10;50.09
47524;BME280;33253;42.144;25.884;2023-05-11T13:07:09;100785.94;;;20.16;50.14
47524;BME280;33253;42.144;25.884;2023-05-11T13:09:35;100792.09;;;20.34;49.44
47524;BME280;33253;42.144;25.884;2023-05-11T13:12:15;100803.44;;;20.42;50.17
47524;BME280;33253;42.144;25.884;2023-05-11T13:14:45;100794.69;;;20.29;49.63
47524;BME280;33253;42.144;25.884;2023-05-11T13:17:11;100781.56;;;20.14;48.96
47524;BME280;33253;42.144;25.884;2023-05-11T13:19:37;100740.44;;;19.93;51.25
47524;BME280;33253;42.144;25.884;2023-05-11T13:22:04;100788.59;;;20.44;50.82
47524;BME280;33253;42.144;25.884;2023-05-11T13:24:30;100790.31;;;20.33;49.30
47524;BME280;33253;42.144;25.884;2023-05-11T13:26:57;100751.81;;;19.98;48.13
47524;BME280;33253;42.144;25.884;2023-05-11T13:29:23;100799.03;;;20.24;50.51
47524;BME280;33253;42.144;25.884;2023-05-11T13:31:50;100777.19;;;20.14;49.87
47524;BME280;33253;42.144;25.884;2023-05-11T13:34:16;100780.66;;;20.21;49.18
47524;BME280;33253;42.144;25.884;2023-05-11T13:36:42;100791.22;;;20.58;50.09
47524;BME280;33253;42.144;25.884;2023-05-11T13:39:08;100772.88;;;20.41;51.49
47524;BME280;33253;42.144;25.884;2023-05-11T13:41:33;100792.97;;;20.45;49.17
47524;BME280;33253;42.144;25.884;2023-05-11T13:43:59;100730.84;;;19.96;49.29
47524;BME280;33253;42.144;25.884;2023-05-11T13:46:24;100743.06;;;20.00;49.77
47524;BME280;33253;42.144;25.884;2023-05-11T13:48:50;100721.09;;;19.56;49.04